Strona główna
METAR-TAF:

METAR-TAF

Lotnisko :

Cumberland, Maryland, Stany Zjednoczone

Szerokość geograficzna: 39-36-56N, Długość geograficzna: 078-45-39W, wysokość: 236 m

Aktualna obserwacja pogody

Raport powstał 24 minut temu, godzina 15:40 UTC
Wiatr 9 kt od zachód
Temperatura 3°C
Wilgotność 75%
Ciśnienie 1015 hPa
Widzialność: 16.1 km
Przerywane chmury na wysokości 3200 ft
Przerywane chmury na wysokości 3800 ft
Zachmurzenie całkowite na wysokości 7000 ft

METAR: KCBE 261540Z AUTO 28009KT 10SM BKN032 BKN038 OVC070 03/M01 A2996 RMK AO2 T00341014

czas: 11:04 (16:04 UTC)


TAF: brakujący

Obserwacja i prognoza pogody dla ponad 4000 lotnisk (raport METAR i TAF).

Dostępne stacje oznaczono żółtymi i czerwonymi punktami na mapie.

Najedź kursorem aby zobaczyć nazwę stacji.

Kliknij aby zobaczyć obserwacje i prognozy pogody.

Aby zmienić mapę: kliknij na zielony przycisk z czarnym krzyżykiem, aby powiększyć; na zielony przycisk z myślnikiem, aby pomniejszyć; na zielone strzałki, aby przejść do map sąsiednich.


METAR-TAF: